ルアンダ の空港の天気 - METARとTAF

ルアンダ国際空港 ( FNLU / LAD ) - アンゴラ ルアンダ
飛行場実況気象(Metar)
観測時間07/17 10:00 WAT (07/17 09:00 UTC)
風向・風速南 2m/s
視程7000m
天気現象
全天の8割程度の雲 雲底高度 610m
気温24℃
湿度69%
気圧1017hPa
METARFNLU 170900Z 18004KT 7000 BKN020 24/18 Q1017 NOSIG
過去の天気等 Google飛行場航空写真 Wunderground天気予報

過去48時間のMETAR

飛行場予報(TAF)
発表時間: 7/17 05:45 WAT (7/17 04:45 UTC)
予報対象時間: 17日7時 WAT ~ 18日13時 WAT
風向・風速不定 2m/s
視程5000m
天気現象もや
少しの雲 雲底高度 520m
全天の8割程度の雲 雲底高度 670m
17日11時 WAT ~ 17日13時 WAT に徐々に
風向・風速不定 1m/s
視程9000m
少しの雲 雲底高度 490m
全天の4割程度の雲 雲底高度 700m
17日14時 WAT ~ 17日18時 WAT に一時的に
風向・風速西 5m/s
視程10km以上
少しの雲 雲底高度 610m
17日19時 WAT ~ 17日21時 WAT に徐々に
風向・風速南南西 6m/s
視程10km以上
なし
18日0時 WAT ~ 18日3時 WAT に一時的に
風向・風速不定 2m/s
視程8000m
なし
TAF COR FNLU 170445Z 1706/1812 VRB03KT 5000 BR FEW017 BKN022
BECMG 1710/1712 VRB02KT 9000 FEW016 SCT023
TEMPO 1713/1717 26009KT 9999 FEW020
BECMG 1718/1720 21011KT CAVOK
TEMPO 1723/1802 VRB03KT 8000 NSC